createdAt,value
2019-05-10T00:00:11.716Z,12.50
2019-05-10T00:02:58.098Z,12.40
2019-05-10T00:05:43.979Z,12.30
2019-05-10T00:08:30.115Z,12.30
2019-05-10T00:11:17.643Z,12.20
2019-05-10T00:13:48.136Z,12.20
2019-05-10T00:16:15.467Z,12.20
2019-05-10T00:18:42.928Z,12.30
2019-05-10T00:21:10.650Z,12.20
2019-05-10T00:23:38.046Z,12.20
2019-05-10T00:26:05.413Z,12.30
2019-05-10T00:28:32.819Z,12.30
2019-05-10T00:31:00.153Z,12.10
2019-05-10T00:33:27.553Z,12.10
2019-05-10T00:35:54.836Z,11.80
2019-05-10T00:38:22.211Z,11.70
2019-05-10T00:40:49.532Z,11.90
2019-05-10T00:43:17.210Z,12.20
2019-05-10T00:45:44.639Z,12.20
2019-05-10T00:48:11.973Z,12.20
2019-05-10T00:50:39.275Z,12.20
2019-05-10T00:53:06.587Z,12.20
2019-05-10T00:55:34.281Z,12.10
2019-05-10T00:58:01.552Z,12.10
2019-05-10T01:00:28.869Z,12.20
2019-05-10T01:02:56.155Z,12.20
2019-05-10T01:05:23.452Z,12.30
2019-05-10T01:07:50.807Z,12.50
2019-05-10T01:10:18.171Z,12.60
2019-05-10T01:12:45.477Z,12.50
2019-05-10T01:15:13.221Z,12.50
2019-05-10T01:17:40.608Z,12.50
2019-05-10T01:20:08.077Z,12.50
2019-05-10T01:22:35.427Z,12.50
2019-05-10T01:25:03.025Z,12.50
2019-05-10T01:27:30.470Z,12.40
2019-05-10T01:29:57.913Z,12.30
2019-05-10T01:32:25.415Z,12.30
2019-05-10T01:34:52.777Z,12.10
2019-05-10T01:37:20.152Z,12.00
2019-05-10T01:39:47.452Z,12.00
2019-05-10T01:42:14.823Z,11.80
2019-05-10T01:44:42.575Z,11.90
2019-05-10T01:47:10.009Z,12.10
2019-05-10T01:49:37.405Z,12.10
2019-05-10T01:52:04.787Z,12.20
2019-05-10T01:54:32.315Z,12.10
2019-05-10T01:56:59.620Z,12.20
2019-05-10T01:59:27.020Z,12.30
2019-05-10T02:01:54.386Z,12.20
2019-05-10T02:04:21.694Z,12.40
2019-05-10T02:06:49.033Z,12.30
2019-05-10T02:09:16.442Z,12.20
2019-05-10T02:11:43.778Z,12.10
2019-05-10T02:14:11.401Z,12.20
2019-05-10T02:16:38.835Z,12.20
2019-05-10T02:19:06.178Z,12.20
2019-05-10T02:21:33.514Z,12.30
2019-05-10T02:24:00.945Z,12.30
2019-05-10T02:26:28.647Z,12.20
2019-05-10T02:28:55.981Z,12.30
2019-05-10T02:31:23.403Z,12.30
2019-05-10T02:33:50.902Z,12.40
2019-05-10T02:36:18.320Z,12.50
2019-05-10T02:38:45.758Z,12.30
2019-05-10T02:41:13.155Z,12.30
2019-05-10T02:43:40.510Z,12.10
2019-05-10T02:46:07.855Z,12.10
2019-05-10T02:48:35.294Z,12.20
2019-05-10T02:51:02.714Z,12.20
2019-05-10T02:53:30.916Z,12.50
2019-05-10T02:55:58.463Z,12.60
2019-05-10T02:58:25.999Z,12.60
2019-05-10T03:00:56.637Z,12.50
2019-05-10T03:03:27.531Z,12.40
2019-05-10T03:05:56.414Z,12.30
2019-05-10T03:08:26.820Z,12.20
2019-05-10T03:10:57.082Z,12.40
2019-05-10T03:13:28.346Z,12.50
2019-05-10T03:15:58.287Z,12.10
2019-05-10T03:18:28.132Z,11.90
2019-05-10T03:20:59.366Z,11.80
2019-05-10T03:23:27.826Z,11.90
2019-05-10T03:25:55.180Z,12.00
2019-05-10T03:28:23.031Z,12.30
2019-05-10T03:30:50.412Z,12.20
2019-05-10T03:33:17.823Z,12.20
2019-05-10T03:35:45.312Z,12.20
2019-05-10T03:38:12.823Z,12.10
2019-05-10T03:40:40.262Z,12.10
2019-05-10T03:43:07.557Z,12.10
2019-05-10T03:45:34.915Z,12.10
2019-05-10T03:48:02.274Z,12.20
2019-05-10T03:50:29.564Z,11.90
2019-05-10T03:52:56.934Z,11.80
2019-05-10T03:55:24.326Z,11.90
2019-05-10T03:57:51.729Z,12.00
2019-05-10T04:00:20.149Z,12.00
2019-05-10T04:02:47.614Z,12.20
2019-05-10T04:05:14.957Z,12.20
2019-05-10T04:07:42.513Z,12.10
2019-05-10T04:10:10.092Z,12.00
2019-05-10T04:12:37.588Z,11.90
2019-05-10T04:15:06.434Z,11.90
2019-05-10T04:17:33.764Z,11.80
2019-05-10T04:20:01.194Z,11.80
2019-05-10T04:22:28.553Z,12.00
2019-05-10T04:24:56.018Z,12.00
2019-05-10T04:27:32.348Z,11.90
2019-05-10T04:29:52.718Z,12.00
2019-05-10T04:32:20.139Z,12.10
2019-05-10T04:34:47.736Z,12.10
2019-05-10T04:37:15.448Z,11.90
2019-05-10T04:39:42.771Z,12.10
2019-05-10T04:42:10.286Z,12.10
2019-05-10T04:44:37.747Z,12.10
2019-05-10T04:47:05.201Z,12.20
2019-05-10T04:49:32.696Z,12.10
2019-05-10T04:52:00.145Z,12.40
2019-05-10T04:54:28.004Z,12.50
2019-05-10T04:56:59.749Z,12.30
2019-05-10T04:59:24.748Z,12.20
2019-05-10T05:01:52.995Z,11.90
2019-05-10T05:04:20.478Z,11.90
2019-05-10T05:06:47.936Z,12.00
2019-05-10T05:09:15.424Z,12.10
2019-05-10T05:11:42.854Z,12.10
2019-05-10T05:14:10.188Z,12.00
2019-05-10T05:16:37.716Z,12.10
2019-05-10T05:19:05.119Z,12.30
2019-05-10T05:21:32.633Z,12.20
2019-05-10T05:23:59.979Z,12.00
2019-05-10T05:26:27.433Z,12.00
2019-05-10T05:28:54.971Z,12.00
2019-05-10T05:31:22.365Z,12.10
2019-05-10T05:33:50.069Z,12.10
2019-05-10T05:36:17.519Z,11.90
2019-05-10T05:38:47.153Z,11.90
2019-05-10T05:41:14.080Z,12.00
2019-05-10T05:43:46.181Z,12.10
2019-05-10T05:46:14.173Z,12.20
2019-05-10T05:48:40.807Z,12.30
2019-05-10T05:51:08.482Z,12.40
2019-05-10T05:53:42.429Z,12.30
2019-05-10T05:56:12.815Z,12.20
2019-05-10T05:58:38.076Z,12.10
2019-05-10T06:01:04.870Z,12.30
2019-05-10T06:03:32.676Z,12.30
2019-05-10T06:06:00.961Z,12.20
2019-05-10T06:08:30.160Z,12.30
2019-05-10T06:10:59.973Z,12.40
2019-05-10T06:13:30.150Z,12.50
2019-05-10T06:16:00.316Z,12.70
2019-05-10T06:18:28.344Z,12.80
2019-05-10T06:20:56.079Z,12.90
2019-05-10T06:23:23.740Z,13.10
2019-05-10T06:25:51.637Z,13.20
2019-05-10T06:28:28.721Z,12.90
2019-05-10T06:30:48.350Z,12.90
2019-05-10T06:33:15.791Z,12.90
2019-05-10T06:35:43.137Z,13.00
2019-05-10T06:38:10.530Z,13.10
2019-05-10T06:40:46.352Z,13.00
2019-05-10T06:43:12.920Z,13.10
2019-05-10T06:45:36.330Z,13.10
2019-05-10T06:48:03.647Z,13.10
2019-05-10T06:50:31.932Z,13.10
2019-05-10T06:53:00.480Z,13.30
2019-05-10T06:55:28.660Z,13.30
2019-05-10T06:57:58.952Z,13.60
2019-05-10T07:00:25.216Z,13.70
2019-05-10T07:02:52.614Z,13.70
2019-05-10T07:05:19.937Z,13.70
2019-05-10T07:07:47.642Z,13.60
2019-05-10T07:10:19.115Z,13.40
2019-05-10T07:12:45.517Z,13.50
2019-05-10T07:15:13.057Z,13.50
2019-05-10T07:17:45.282Z,13.40
2019-05-10T07:20:09.557Z,13.20
2019-05-10T07:22:37.014Z,13.10
2019-05-10T07:25:05.082Z,12.80
2019-05-10T07:27:36.670Z,12.90
2019-05-10T07:30:03.828Z,12.90
2019-05-10T07:32:31.472Z,12.90
2019-05-10T07:35:01.055Z,12.90
2019-05-10T07:37:28.166Z,13.10
2019-05-10T07:39:55.471Z,13.00
2019-05-10T07:42:22.791Z,13.10
2019-05-10T07:44:50.125Z,13.20
2019-05-10T07:47:17.449Z,13.20
2019-05-10T07:49:44.820Z,13.00
2019-05-10T07:52:12.141Z,13.00
2019-05-10T07:54:45.208Z,13.00
2019-05-10T07:57:08.870Z,13.10
2019-05-10T07:59:49.490Z,13.20
2019-05-10T08:02:12.244Z,13.30
2019-05-10T08:04:34.783Z,13.50
2019-05-10T08:07:02.083Z,13.30
2019-05-10T08:09:31.698Z,13.20
2019-05-10T08:12:00.611Z,13.10
2019-05-10T08:14:28.999Z,13.10
2019-05-10T08:17:01.931Z,13.20
2019-05-10T08:19:25.765Z,13.20
2019-05-10T08:21:56.509Z,13.10
2019-05-10T08:24:22.682Z,13.10
2019-05-10T08:26:55.607Z,12.90
2019-05-10T08:29:19.360Z,12.90
2019-05-10T08:31:52.739Z,12.80
2019-05-10T08:34:16.037Z,12.70
2019-05-10T08:36:47.517Z,12.80
2019-05-10T08:39:13.989Z,12.60
2019-05-10T08:41:43.262Z,12.80
2019-05-10T08:44:19.073Z,13.00
2019-05-10T08:46:42.181Z,12.90
2019-05-10T08:49:09.972Z,12.80
2019-05-10T08:51:44.227Z,13.00
2019-05-10T08:54:06.490Z,13.20
2019-05-10T08:56:33.854Z,13.30
2019-05-10T08:59:03.791Z,13.30
2019-05-10T09:01:38.315Z,13.40
2019-05-10T09:04:06.103Z,14.00
2019-05-10T09:06:29.131Z,14.40
2019-05-10T09:09:01.474Z,14.50
2019-05-10T09:11:25.841Z,14.60
2019-05-10T09:13:55.678Z,14.70
2019-05-10T09:16:23.684Z,14.90
2019-05-10T09:18:53.516Z,14.80
2019-05-10T09:21:22.380Z,14.70
2019-05-10T09:23:52.832Z,14.80
2019-05-10T09:26:19.000Z,15.10
2019-05-10T09:28:47.676Z,15.20
2019-05-10T09:31:21.353Z,15.20
2019-05-10T09:33:49.576Z,15.70
2019-05-10T09:36:14.387Z,16.20
2019-05-10T09:38:44.219Z,16.30
2019-05-10T09:41:11.889Z,16.50
2019-05-10T09:43:40.521Z,16.70
2019-05-10T09:46:11.554Z,16.60
2019-05-10T09:48:38.583Z,16.40
2019-05-10T09:51:06.025Z,16.60
2019-05-10T09:53:33.436Z,16.40
2019-05-10T09:56:03.122Z,16.50
2019-05-10T09:58:30.073Z,16.50
2019-05-10T10:01:12.807Z,16.50
2019-05-10T10:03:29.645Z,16.50
2019-05-10T10:06:05.183Z,16.80
2019-05-10T10:08:25.354Z,17.10
2019-05-10T10:11:01.111Z,17.10
2019-05-10T10:13:38.989Z,17.30
2019-05-10T10:15:54.173Z,17.20
2019-05-10T10:18:25.310Z,17.10
2019-05-10T10:20:50.801Z,17.20
2019-05-10T10:23:18.261Z,17.10
2019-05-10T10:25:45.590Z,17.00
2019-05-10T10:28:16.889Z,16.90
2019-05-10T10:30:42.272Z,16.70
2019-05-10T10:33:11.173Z,16.70
2019-05-10T10:35:38.997Z,16.80
2019-05-10T10:38:07.972Z,16.50
2019-05-10T10:40:44.266Z,16.60
2019-05-10T10:43:07.253Z,16.80
2019-05-10T10:45:34.159Z,17.30
2019-05-10T10:48:07.245Z,17.60
2019-05-10T10:50:30.909Z,18.20
2019-05-10T10:52:58.248Z,18.30
2019-05-10T10:55:30.595Z,18.40
2019-05-10T10:57:57.551Z,18.40
2019-05-10T11:00:32.636Z,18.50
2019-05-10T11:03:00.571Z,18.70
2019-05-10T11:05:28.490Z,19.00
2019-05-10T11:07:55.860Z,18.70
2019-05-10T11:10:31.023Z,18.20
2019-05-10T11:13:04.546Z,17.90
2019-05-10T11:15:30.202Z,17.80
2019-05-10T11:17:57.017Z,17.30
2019-05-10T11:20:24.383Z,17.00
2019-05-10T11:22:53.496Z,16.60
2019-05-10T11:25:21.342Z,16.50
2019-05-10T11:27:53.907Z,16.20
2019-05-10T11:30:18.325Z,16.10
2019-05-10T11:32:45.854Z,16.20
2019-05-10T11:35:19.124Z,16.40
2019-05-10T11:37:45.559Z,16.00
2019-05-10T11:40:12.287Z,16.10
2019-05-10T11:42:43.825Z,16.10
2019-05-10T11:45:11.111Z,16.10
2019-05-10T11:47:40.848Z,16.00
2019-05-10T11:50:10.613Z,16.20
2019-05-10T11:52:40.802Z,17.60
2019-05-10T11:55:08.454Z,20.70
2019-05-10T11:57:36.222Z,22.40
2019-05-10T12:00:04.355Z,23.30
2019-05-10T12:02:38.775Z,24.60
2019-05-10T12:05:10.817Z,26.30
2019-05-10T12:07:35.374Z,25.60
2019-05-10T12:12:50.310Z,25.30
2019-05-10T12:15:04.066Z,26.60
2019-05-10T12:17:28.563Z,28.70
2019-05-10T12:22:37.195Z,31.00
2019-05-10T12:25:18.741Z,30.40
2019-05-10T12:26:27.548Z,24.80
2019-05-10T12:26:31.416Z,30.10
2019-05-10T12:27:29.202Z,28.80
2019-05-10T12:29:59.554Z,27.00
2019-05-10T12:32:26.939Z,24.80
2019-05-10T12:34:56.450Z,23.80
2019-05-10T12:37:22.666Z,22.70
2019-05-10T12:39:52.961Z,21.80
2019-05-10T12:42:21.817Z,21.20
2019-05-10T12:44:48.677Z,20.80
2019-05-10T12:47:16.637Z,20.50
2019-05-10T12:49:44.279Z,19.80
2019-05-10T12:52:14.038Z,19.40
2019-05-10T12:54:41.520Z,19.00
2019-05-10T12:57:09.054Z,18.90
2019-05-10T12:59:36.733Z,18.70
2019-05-10T13:02:10.742Z,18.80
2019-05-10T13:04:40.467Z,18.40
2019-05-10T13:07:03.665Z,18.10
2019-05-10T13:09:39.816Z,18.40
2019-05-10T13:12:03.907Z,19.50
2019-05-10T13:14:29.597Z,22.40
2019-05-10T13:16:57.234Z,25.40
2019-05-10T13:19:24.780Z,28.90
2019-05-10T13:21:53.656Z,32.70
2019-05-10T13:24:21.670Z,34.50
2019-05-10T13:26:49.122Z,34.80
2019-05-10T13:29:16.558Z,36.70
2019-05-10T13:31:44.447Z,37.90
2019-05-10T13:34:12.114Z,36.70
2019-05-10T13:36:39.634Z,35.90
2019-05-10T13:39:07.460Z,34.90
2019-05-10T13:41:34.960Z,32.70
2019-05-10T13:44:04.886Z,30.90
2019-05-10T13:46:31.895Z,28.80
2019-05-10T13:49:00.229Z,26.90
2019-05-10T13:51:27.698Z,24.90
2019-05-10T13:53:58.925Z,23.50
2019-05-10T13:56:24.596Z,22.40
2019-05-10T13:58:52.176Z,21.30
2019-05-10T14:01:19.689Z,20.70
2019-05-10T14:03:54.010Z,20.60
2019-05-10T14:06:16.872Z,20.50
2019-05-10T14:08:48.210Z,20.50
2019-05-10T14:11:13.815Z,19.80
2019-05-10T14:13:43.098Z,19.90
2019-05-10T14:16:18.299Z,19.50
2019-05-10T14:18:39.982Z,19.20
2019-05-10T14:21:07.531Z,18.70
2019-05-10T14:23:35.613Z,18.80
2019-05-10T14:26:09.453Z,18.50
2019-05-10T14:28:33.636Z,18.40
2019-05-10T14:31:01.094Z,18.30
2019-05-10T14:33:28.819Z,18.60
2019-05-10T14:36:00.904Z,19.30
2019-05-10T14:38:25.606Z,20.00
2019-05-10T14:40:53.040Z,20.80
2019-05-10T14:43:20.582Z,21.40
2019-05-10T14:45:47.983Z,22.40
2019-05-10T14:48:28.104Z,23.80
2019-05-10T14:50:47.118Z,25.40
2019-05-10T14:53:20.056Z,27.20
2019-05-10T14:55:44.362Z,28.70
2019-05-10T14:58:11.976Z,30.70
2019-05-10T15:00:39.456Z,32.40
2019-05-10T15:03:06.920Z,33.90
2019-05-10T15:05:36.451Z,32.90
2019-05-10T15:08:03.847Z,32.70
2019-05-10T15:10:32.970Z,31.30
2019-05-10T15:13:00.567Z,31.50
2019-05-10T15:15:37.051Z,31.00
2019-05-10T15:18:02.274Z,32.40
2019-05-10T15:20:35.255Z,32.60
2019-05-10T15:23:01.275Z,33.00
2019-05-10T15:25:28.899Z,33.80
2019-05-10T15:28:16.177Z,35.00
2019-05-10T15:30:45.836Z,34.40
2019-05-10T15:33:12.977Z,33.30
2019-05-10T15:35:40.430Z,31.50
2019-05-10T15:38:09.703Z,30.20
2019-05-10T15:40:38.666Z,29.10
2019-05-10T15:43:10.433Z,27.30
2019-05-10T15:45:35.918Z,26.30
2019-05-10T15:48:04.558Z,25.70
2019-05-10T15:50:32.630Z,24.70
2019-05-10T15:53:01.525Z,23.60
2019-05-10T15:55:29.094Z,22.80
2019-05-10T15:57:57.587Z,22.30
2019-05-10T16:00:37.435Z,21.80
2019-05-10T16:02:55.241Z,21.10
2019-05-10T16:05:29.686Z,20.60
2019-05-10T16:07:53.204Z,20.30
2019-05-10T16:10:20.797Z,20.00
2019-05-10T16:12:48.633Z,19.60
2019-05-10T16:15:20.099Z,19.10
2019-05-10T16:17:45.466Z,18.90
2019-05-10T16:20:13.070Z,18.70
2019-05-10T16:22:40.643Z,18.70
2019-05-10T16:25:08.317Z,18.70
2019-05-10T16:27:41.607Z,18.80
2019-05-10T16:30:05.729Z,18.40
2019-05-10T16:32:34.488Z,18.20
2019-05-10T16:35:05.752Z,18.30
2019-05-10T16:37:32.123Z,18.30
2019-05-10T16:39:59.627Z,18.60
2019-05-10T16:42:27.764Z,18.60
2019-05-10T16:44:56.529Z,18.50
2019-05-10T16:47:24.222Z,18.30
2019-05-10T16:49:53.236Z,18.20
2019-05-10T16:52:25.984Z,18.10
2019-05-10T16:54:50.777Z,18.10
2019-05-10T16:57:18.328Z,18.00
2019-05-10T16:59:45.979Z,18.10
2019-05-10T17:02:13.588Z,18.10
2019-05-10T17:04:41.147Z,17.80
2019-05-10T17:07:13.085Z,17.70
2019-05-10T17:09:38.450Z,17.50
2019-05-10T17:12:05.992Z,17.30
2019-05-10T17:14:33.503Z,17.40
2019-05-10T17:17:01.026Z,17.30
2019-05-10T17:19:34.182Z,17.40
2019-05-10T17:21:57.845Z,17.50
2019-05-10T17:24:25.559Z,17.50
2019-05-10T17:26:53.134Z,17.40
2019-05-10T17:29:20.994Z,17.30
2019-05-10T17:31:48.542Z,16.90
2019-05-10T17:34:27.734Z,16.80
2019-05-10T17:36:45.380Z,16.60
2019-05-10T17:39:12.868Z,16.40
2019-05-10T17:41:40.354Z,16.30
2019-05-10T17:44:07.836Z,16.40
2019-05-10T17:46:35.279Z,16.40
2019-05-10T17:49:02.871Z,16.30
2019-05-10T17:51:30.418Z,16.30
2019-05-10T17:54:01.648Z,16.30
2019-05-10T17:56:27.222Z,16.10
2019-05-10T17:58:54.772Z,15.90
2019-05-10T18:01:22.691Z,15.80
2019-05-10T18:03:50.202Z,15.80
2019-05-10T18:06:23.793Z,15.70
2019-05-10T18:08:47.034Z,15.70
2019-05-10T18:11:14.472Z,15.80
2019-05-10T18:13:42.628Z,15.70
2019-05-10T18:16:11.002Z,15.70
2019-05-10T18:18:46.336Z,15.60
2019-05-10T18:21:08.284Z,15.70
2019-05-10T18:23:35.798Z,15.70
2019-05-10T18:26:03.728Z,15.70
2019-05-10T18:28:31.299Z,15.60
2019-05-10T18:30:59.097Z,15.60
2019-05-10T18:33:26.755Z,15.50
2019-05-10T18:35:54.726Z,15.50
2019-05-10T18:38:22.459Z,15.40
2019-05-10T18:40:50.198Z,15.40
2019-05-10T18:43:17.907Z,15.70
2019-05-10T18:45:45.792Z,15.40
2019-05-10T18:48:13.649Z,15.30
2019-05-10T18:50:45.562Z,15.30
2019-05-10T18:53:10.884Z,15.10
2019-05-10T18:55:38.522Z,15.20
2019-05-10T18:58:06.114Z,15.10
2019-05-10T19:00:36.129Z,15.20
2019-05-10T19:03:03.872Z,15.20
2019-05-10T19:05:33.046Z,15.20
2019-05-10T19:08:04.643Z,15.30
2019-05-10T19:10:30.180Z,15.20
2019-05-10T19:13:01.404Z,15.10
2019-05-10T19:15:27.272Z,15.00
2019-05-10T19:17:54.812Z,15.00
2019-05-10T19:20:22.381Z,15.00
2019-05-10T19:22:49.939Z,14.90
2019-05-10T19:25:17.597Z,14.90
2019-05-10T19:27:50.556Z,14.90
2019-05-10T19:30:20.086Z,14.90
2019-05-10T19:32:44.390Z,14.90
2019-05-10T19:35:12.447Z,14.90
2019-05-10T19:37:41.910Z,14.80
2019-05-10T19:40:09.602Z,14.70
2019-05-10T19:42:42.661Z,14.60
2019-05-10T19:45:07.184Z,14.60
2019-05-10T19:47:34.787Z,14.50
2019-05-10T19:50:02.481Z,14.50
2019-05-10T19:52:30.059Z,14.60
2019-05-10T19:54:58.198Z,14.50
2019-05-10T19:57:25.700Z,14.50
2019-05-10T19:59:53.523Z,14.50
2019-05-10T20:02:21.059Z,14.50
2019-05-10T20:04:48.595Z,14.40
2019-05-10T20:07:16.095Z,14.40
2019-05-10T20:09:43.600Z,14.40
2019-05-10T20:12:10.971Z,14.30
2019-05-10T20:14:38.489Z,14.30
2019-05-10T20:17:06.058Z,14.40
2019-05-10T20:19:33.470Z,14.20
2019-05-10T20:22:01.355Z,14.00
2019-05-10T20:24:29.155Z,13.90
2019-05-10T20:26:57.096Z,13.80
2019-05-10T20:29:24.633Z,13.80
2019-05-10T20:31:52.505Z,13.70
2019-05-10T20:34:24.056Z,13.60
2019-05-10T20:36:49.702Z,13.70
2019-05-10T20:39:17.107Z,13.70
2019-05-10T20:41:44.672Z,13.50
2019-05-10T20:44:12.280Z,13.50
2019-05-10T20:46:40.388Z,13.40
2019-05-10T20:49:08.124Z,13.30
2019-05-10T20:51:35.755Z,13.30
2019-05-10T20:54:03.879Z,13.30
2019-05-10T20:56:31.520Z,13.30
2019-05-10T20:58:59.000Z,13.30
2019-05-10T21:01:26.796Z,13.20
2019-05-10T21:03:54.504Z,13.10
2019-05-10T21:06:21.931Z,13.00
2019-05-10T21:08:49.408Z,13.00
2019-05-10T21:11:16.858Z,12.90
2019-05-10T21:13:44.374Z,12.90
2019-05-10T21:16:11.847Z,12.90
2019-05-10T21:18:39.477Z,12.90
2019-05-10T21:21:07.100Z,12.90
2019-05-10T21:23:34.680Z,12.90
2019-05-10T21:26:02.168Z,12.90
2019-05-10T21:28:29.850Z,12.80
2019-05-10T21:30:57.386Z,12.90
2019-05-10T21:33:24.976Z,12.80
2019-05-10T21:35:52.580Z,12.80
2019-05-10T21:38:31.874Z,12.90
2019-05-10T21:40:49.245Z,13.00
2019-05-10T21:43:16.957Z,13.00
2019-05-10T21:45:45.528Z,12.80
2019-05-10T21:48:13.294Z,12.60
2019-05-10T21:50:40.939Z,12.60
2019-05-10T21:53:08.793Z,12.50
2019-05-10T21:55:36.252Z,12.50
2019-05-10T21:58:03.707Z,12.60
2019-05-10T22:00:36.708Z,12.70
2019-05-10T22:03:04.458Z,12.60
2019-05-10T22:05:31.997Z,12.60
2019-05-10T22:07:59.770Z,12.50
2019-05-10T22:10:27.869Z,12.50
2019-05-10T22:12:55.528Z,12.60
2019-05-10T22:15:23.308Z,12.70
2019-05-10T22:17:51.102Z,12.70
2019-05-10T22:20:18.759Z,12.80
2019-05-10T22:22:46.451Z,12.80
2019-05-10T22:25:14.440Z,12.80
2019-05-10T22:27:42.014Z,12.80
2019-05-10T22:30:12.157Z,12.90
2019-05-10T22:32:39.362Z,12.90
2019-05-10T22:35:07.474Z,12.90
2019-05-10T22:37:35.004Z,13.00
2019-05-10T22:40:02.496Z,13.00
2019-05-10T22:42:30.195Z,12.90
2019-05-10T22:44:57.723Z,12.90
2019-05-10T22:47:25.667Z,13.00
2019-05-10T22:49:53.270Z,13.00
2019-05-10T22:52:20.782Z,13.20
2019-05-10T22:54:48.494Z,13.10
2019-05-10T22:57:16.028Z,13.10
2019-05-10T22:59:43.795Z,13.10
2019-05-10T23:02:11.316Z,13.10
2019-05-10T23:04:39.067Z,13.30
2019-05-10T23:07:06.522Z,13.20
2019-05-10T23:09:34.181Z,13.20
2019-05-10T23:12:01.853Z,13.20
2019-05-10T23:14:29.489Z,13.20
2019-05-10T23:16:57.174Z,13.20
2019-05-10T23:19:24.615Z,13.20
2019-05-10T23:21:52.548Z,13.20
2019-05-10T23:24:23.196Z,13.10
2019-05-10T23:26:51.162Z,13.00
2019-05-10T23:29:18.699Z,13.00
2019-05-10T23:31:46.657Z,13.00
2019-05-10T23:34:14.333Z,13.10
2019-05-10T23:36:42.080Z,13.10
2019-05-10T23:39:10.486Z,13.10
2019-05-10T23:41:38.441Z,13.30
2019-05-10T23:44:05.988Z,13.30
2019-05-10T23:46:33.475Z,13.30
2019-05-10T23:49:01.003Z,13.50
2019-05-10T23:51:28.487Z,13.30
2019-05-10T23:53:55.977Z,13.40
2019-05-10T23:56:23.851Z,13.40
2019-05-10T23:58:51.362Z,13.20
